• Join FlightAware (Why Join?)
  • Login
  • US Flag 
03:03AM EDT


 

Airport Tracker/Info


-or-


 

Live Flight TrackerFlight Track Log ✈ N458Q ✈ 06-May-2012 ✈ KTRM - KUAO

Flight Track Log - Related Links

Times and Time Zones

All times are in EDT time to prevent confusion due to time zone crossing. See the N458Q flight status page for this flight to view local times or setup timezone preferences in your user account.

Time Position Orientation Groundspeed Altitude Reporting Facility
EDT Latitude Longitude Course Direction KTS MPH feet Rate Location/Type
03:47PM 33.7500 -116.2833 309° West 181 208 8,000  Level Southern California TRACON
03:48PM 33.7833 -116.3333 341° North 189 217 10,300 2,040 Climbing Southern California TRACON
03:49PM 33.8517 -116.3614 13° North 208 239 12,900 1,080 Climbing Los Angeles Center
03:50PM 33.9225 -116.3414 13° North 241 277 12,900  Level Los Angeles Center
03:51PM 34.0019 -116.3192 348° North 260 299 12,900  Level Los Angeles Center
03:52PM 34.0811 -116.3394 314° West 283 326 13,000 60 Climbing Los Angeles Center
03:53PM 34.1333 -116.4047 312° West 269 310 13,100  Climbing Los Angeles Center
03:54PM 34.1894 -116.4803 326° Northwest 279 321 13,100 120 Level Los Angeles Center
03:55PM 34.2581 -116.5358 337° Northwest 291 335 13,400 420 Climbing Los Angeles Center
03:56PM 34.3289 -116.5714 335° Northwest 286 329 14,000 1,200 Climbing Los Angeles Center
03:57PM 34.3978 -116.6097 338° Northwest 275 316 15,900 1,740 Climbing Los Angeles Center
03:58PM 34.4644 -116.6428 340° North 264 304 17,500 1,380 Climbing Los Angeles Center
03:59PM 34.5289 -116.6708 334° Northwest 252 290 18,700 720 Climbing Los Angeles Center
04:00PM 34.5975 -116.7117 334° Northwest 259 298 19,000 120 Climbing Los Angeles Center
04:01PM 34.6725 -116.7553 334° Northwest 274 315 19,000  Level Los Angeles Center
04:02PM 34.7494 -116.8014 334° Northwest 294 338 19,000  Level Los Angeles Center
04:03PM 34.8286 -116.8475 334° Northwest 299 344 19,100 1,320 Climbing Los Angeles Center
04:04PM 34.8931 -116.8861 334° Northwest 285 328 21,700 1,740 Climbing Los Angeles Center
04:05PM 34.9533 -116.9219 334° Northwest 258 297 22,600 660 Climbing Los Angeles Center
04:06PM 35.0197 -116.9608 333° Northwest 253 291 23,100 1,140 Climbing Los Angeles Center
04:07PM 35.0819 -116.9994 336° Northwest 258 297 24,900 1,440 Climbing Los Angeles Center
04:08PM 35.1444 -117.0333 332° Northwest 248 285 26,000 1,140 Climbing Los Angeles Center
04:09PM 35.2047 -117.0719 334° Northwest 242 278 27,200 960 Climbing Los Angeles Center
04:10PM 35.2669 -117.1083 335° Northwest 242 278 28,000 360 Climbing Los Angeles Center
04:11PM 35.3356 -117.1475 334° Northwest 242 278 28,000  Level Los Angeles Center
04:12PM 35.4081 -117.1917 334° Northwest 265 305 28,000  Level Los Angeles Center
04:13PM 35.4892 -117.2411 333° Northwest 287 330 28,000  Level Los Angeles Center
04:14PM 35.5639 -117.2881 334° Northwest 287 330 28,000  Level Los Angeles Center
04:15PM 35.6383 -117.3328 334° Northwest 292 336 28,000  Level Los Angeles Center
04:16PM 35.7131 -117.3772 333° Northwest 297 342 28,000  Level Los Angeles Center
04:17PM 35.7856 -117.4219 334° Northwest 297 342 28,000  Level Los Angeles Center
04:18PM 35.8644 -117.4692 334° Northwest 297 342 28,000  Level Los Angeles Center
04:19PM 35.9392 -117.5142 334° Northwest 297 342 28,000  Level Los Angeles Center
04:20PM 36.0136 -117.5592 333° Northwest 297 342 28,000  Level Los Angeles Center
04:21PM 36.0861 -117.6042 333° Northwest 297 342 28,000  Level Los Angeles Center
04:31PM 36.7178 -118.0044 334° Northwest 263 303 28,000  Level Oakland Center
04:35PM 36.9803 -118.1631 338° Northwest 267 307 28,000  Level Oakland Center
04:36PM 37.0478 -118.1969 339° North 262 302 28,000  Level Oakland Center
04:37PM 37.1133 -118.2283 340° North 256 295 28,000  Level Oakland Center
04:38PM 37.1828 -118.2597 337° Northwest 256 295 28,000  Level Oakland Center
04:39PM 37.2483 -118.2939 341° North 256 295 28,000  Level Oakland Center
04:40PM 37.3031 -118.3181 339° North 256 295 28,000  Level Oakland Center
04:41PM 37.3789 -118.3547 338° Northwest 256 295 28,000  Level Oakland Center
04:42PM 37.4444 -118.3889 340° North 256 295 28,000  Level Oakland Center
04:43PM 37.5139 -118.4206 339° North 256 295 28,000  Level Oakland Center
04:44PM 37.5794 -118.4525 339° North 256 295 28,000  Level Oakland Center
04:45PM 37.6489 -118.4867 338° Northwest 256 295 28,000  Level Oakland Center
04:46PM 37.7164 -118.5214 339° North 256 295 28,000  Level Oakland Center
04:47PM 37.7817 -118.5533 339° North 256 295 28,000  Level Oakland Center
04:48PM 37.8511 -118.5878 339° North 256 295 28,000  Level Oakland Center
04:49PM 37.9167 -118.6200 339° North 256 295 28,000  Level Oakland Center
04:50PM 37.9839 -118.6519 339° North 256 295 28,000  Level Oakland Center
04:51PM 38.0514 -118.6842 338° Northwest 256 295 28,000  Level Oakland Center
04:52PM 38.1189 -118.7189 335° Northwest 256 295 28,000  Level Oakland Center
04:53PM 38.1778 -118.7542 339° North 251 289 28,000  Level Oakland Center
04:54PM 38.2453 -118.7867 339° North 251 289 28,000  Level Oakland Center
04:55PM 38.3125 -118.8189 338° Northwest 256 295 28,000  Level Oakland Center
04:56PM 38.3800 -118.8542 337° Northwest 256 295 28,000  Level Oakland Center
04:57PM 38.4453 -118.8892 338° Northwest 256 295 28,000  Level Oakland Center
04:58PM 38.5125 -118.9244 338° Northwest 256 295 28,000  Level Oakland Center
04:59PM 38.5800 -118.9597 339° North 256 295 28,000  Level Oakland Center
05:00PM 38.6472 -118.9925 338° Northwest 256 295 28,000  Level Oakland Center
05:01PM 38.7144 -119.0278 339° North 256 295 28,000  Level Oakland Center
05:02PM 38.7819 -119.0606 337° Northwest 256 295 28,000  Level Oakland Center
05:03PM 38.8469 -119.0964 340° North 256 295 28,000  Level Oakland Center
05:04PM 38.9164 -119.1292 337° Northwest 256 295 28,000  Level Oakland Center
05:05PM 38.9817 -119.1650 338° Northwest 256 295 28,000  Level Oakland Center
05:06PM 39.0489 -119.2006 338° Northwest 256 295 28,000  Level Oakland Center
05:07PM 39.1183 -119.2364 337° Northwest 256 295 28,000  Level Oakland Center
05:08PM 39.1833 -119.2722 339° North 256 295 28,000  Level Oakland Center
05:09PM 39.2506 -119.3056 337° Northwest 256 295 28,000  Level Oakland Center
05:10PM 39.3178 -119.3417 338° Northwest 256 295 28,000  Level Oakland Center
05:11PM 39.3914 -119.3803 339° North 256 295 28,000  Level Oakland Center
05:12PM 39.4586 -119.4136 337° Northwest 256 295 28,000  Level Oakland Center
05:13PM 39.5256 -119.4497 337° Northwest 256 295 28,000 -120 Level Oakland Center
05:14PM 39.5928 -119.4861 338° Northwest 256 295 27,800 -360 Descending Oakland Center
05:15PM 39.6622 -119.5225 338° Northwest 256 295 27,300 -720 Descending Oakland Center
05:16PM 39.7375 -119.5614 338° Northwest 261 300 26,400 -900 Descending Oakland Center
05:17PM 39.8153 -119.6031 339° North 277 319 25,600 -660 Descending Oakland Center
05:18PM 39.8886 -119.6394 336° Northwest 282 325 25,100 -600 Descending Oakland Center
05:19PM 39.9619 -119.6814 338° Northwest 282 325 24,500 -600 Descending Oakland Center
05:20PM 40.0375 -119.7208 337° Northwest 287 330 24,000 -300 Descending Oakland Center
05:21PM 40.1089 -119.7603 338° Northwest 287 330 24,000  Level Oakland Center
05:22PM 40.1800 -119.7969 339° North 276 318 24,000  Level Oakland Center
05:23PM 40.2533 -119.8339 336° Northwest 276 318 24,000  Level Oakland Center
05:24PM 40.3225 -119.8736 338° Northwest 276 318 24,000  Level Oakland Center
05:26PM 40.5086 -119.9733 338° Northwest 273 314 24,000  Level Seattle Center
05:27PM 40.5794 -120.0117 337° Northwest 274 315 24,000  Level Seattle Center
05:28PM 40.6408 -120.0453 337° Northwest 271 312 24,000  Level Seattle Center
05:32PM 40.9314 -120.2064 337° Northwest 270 311 24,000  Level Seattle Center
05:38PM 41.2842 -120.4011 337° Northwest 277 319 24,000  Level Seattle Center
05:39PM 41.3692 -120.4483 337° Northwest 277 319 24,000  Level Seattle Center
05:40PM 41.4397 -120.4883 337° Northwest 275 316 24,000  Level Seattle Center
05:41PM 41.5100 -120.5272 337° Northwest 275 316 24,000  Level Seattle Center
05:42PM 41.5811 -120.5667 336° Northwest 277 319 24,000  Level Seattle Center
05:43PM 41.6517 -120.6078 337° Northwest 276 318 24,000  Level Seattle Center
05:44PM 41.7217 -120.6472 336° Northwest 275 316 24,000  Level Seattle Center
05:45PM 41.7914 -120.6883 337° Northwest 274 315 24,000  Level Seattle Center
05:46PM 41.8619 -120.7283 337° Northwest 275 316 24,000  Level Seattle Center
05:47PM 41.9344 -120.7703 337° Northwest 278 320 24,000  Level Seattle Center
05:48PM 42.0061 -120.8103 337° Northwest 279 321 24,000  Level Seattle Center
05:49PM 42.1053 -120.8672 337° Northwest 278 320 24,000  Level Seattle Center
05:50PM 42.1761 -120.9072 336° Northwest 278 320 24,000  Level Seattle Center
05:51PM 42.2464 -120.9486 337° Northwest 277 319 24,000  Level Seattle Center
05:52PM 42.3175 -120.9900 337° Northwest 277 319 24,000  Level Seattle Center
05:53PM 42.3894 -121.0319 337° Northwest 281 323 24,000  Level Seattle Center
05:54PM 42.4608 -121.0725 337° Northwest 281 323 24,000  Level Seattle Center
05:55PM 42.5167 -121.1053 337° Northwest 277 319 24,000  Level Seattle Center
05:56PM 42.6008 -121.1528 336° Northwest 275 316 24,000  Level Seattle Center
05:57PM 42.6856 -121.2031 337° Northwest 277 319 24,000  Level Seattle Center
05:58PM 42.7578 -121.2442 335° Northwest 280 322 24,000  Level Seattle Center
05:59PM 42.8294 -121.2889 337° Northwest 282 325 24,000  Level Seattle Center
06:00PM 42.9008 -121.3300 336° Northwest 280 322 24,000  Level Seattle Center
06:01PM 42.9708 -121.3717 336° Northwest 277 319 24,000  Level Seattle Center
06:02PM 43.0561 -121.4225 337° Northwest 278 320 24,000  Level Seattle Center
06:03PM 43.1275 -121.4642 337° Northwest 278 320 24,000  Level Seattle Center
06:05PM 43.1978 -121.5053 336° Northwest 276 318 24,000  Level Seattle Center
06:06PM 43.2694 -121.5483 337° Northwest 279 321 24,000  Level Seattle Center
06:07PM 43.3556 -121.5997 336° Northwest 281 323 24,000  Level Seattle Center
06:08PM 43.4256 -121.6428 337° Northwest 278 320 24,000  Level Seattle Center
06:09PM 43.4964 -121.6842 337° Northwest 277 319 24,000  Level Seattle Center
06:10PM 43.5678 -121.7261 336° Northwest 278 320 24,000  Level Seattle Center
06:11PM 43.6386 -121.7694 337° Northwest 278 320 24,000  Level Seattle Center
06:12PM 43.7083 -121.8111 337° Northwest 275 316 24,000 -120 Level Seattle Center
06:13PM 43.7781 -121.8522 337° Northwest 273 314 23,800 -420 Descending Seattle Center
06:14PM 43.8639 -121.9028 337° Northwest 290 334 23,200 -660 Descending Seattle Center
06:15PM 43.9400 -121.9486 336° Northwest 297 342 22,500 -780 Descending Seattle Center
06:16PM 44.0167 -121.9958 336° Northwest 300 345 21,700 -900 Descending Seattle Center
06:17PM 44.0953 -122.0439 336° Northwest 305 351 20,700 -1,020 Descending Seattle Center
06:18PM 44.1747 -122.0931 336° Northwest 311 358 19,700 -1,080 Descending Seattle Center
06:19PM 44.2544 -122.1433 336° Northwest 313 360 18,600 -780 Descending Seattle Center
06:20PM 44.3339 -122.1922 336° Northwest 313 360 18,000 -840 Descending Seattle Center
06:21PM 44.4300 -122.2511 337° Northwest 314 361 16,800 -1,200 Descending Seattle Center
06:22PM 44.5203 -122.3053 335° Northwest 301 346 15,600 -1,080 Descending Seattle Center
06:23PM 44.5900 -122.3506 335° Northwest 285 328 14,600 -1,260 Descending Seattle Center
06:24PM 44.6597 -122.3958 337° Northwest 279 321 13,100 -1,620 Descending Seattle Center
06:25PM 44.7169 -122.4306 335° Northwest 287 330 11,900 -1,560 Descending Seattle Center
06:26PM 44.8044 -122.4872 337° Northwest 284 327 10,000 -1,500 Descending Seattle Center
06:27PM 44.8786 -122.5314 339° North 279 321 8,400 -1,620 Descending Seattle Center
06:28PM 44.9481 -122.5697 330° Northwest 274 315 6,700 -1,680 Descending Seattle Center
06:29PM 45.0036 -122.6158 332° Northwest 241 277 5,000 -1,320 Descending Seattle Center
06:30PM 45.0578 -122.6567 330° Northwest 225 259 4,100 -840 Descending Seattle Center
06:31PM 45.1078 -122.6978 330° Northwest 214 246 3,300 -720 Descending Seattle Center
06:32PM 45.1539 -122.7361 328° Northwest 200 230 2,700 -840 Descending Seattle Center
06:33PM 45.1872 -122.7656 350° North 151 174 1,600 -1,140 Descending Seattle Center
06:34PM 45.2244 -122.7750 350° North 120 138 500 -1,140 Descending Seattle Center